sensor_id;sensor_type;location;lat;lon;timestamp;P1;durP1;ratioP1;P2;durP2;ratioP2
56075;SDS011;41951;49.022;12.066;2023-02-28T00:00:27;9.65;;;5.03;;
56075;SDS011;41951;49.022;12.066;2023-02-28T00:02:53;6.75;;;4.03;;
56075;SDS011;41951;49.022;12.066;2023-02-28T00:05:20;7.80;;;4.07;;
56075;SDS011;41951;49.022;12.066;2023-02-28T00:07:47;8.23;;;4.00;;
56075;SDS011;41951;49.022;12.066;2023-02-28T00:10:15;8.32;;;3.95;;
56075;SDS011;41951;49.022;12.066;2023-02-28T00:12:49;10.63;;;4.43;;
56075;SDS011;41951;49.022;12.066;2023-02-28T00:15:15;7.17;;;4.07;;
56075;SDS011;41951;49.022;12.066;2023-02-28T00:17:42;6.25;;;3.38;;
56075;SDS011;41951;49.022;12.066;2023-02-28T00:20:08;6.90;;;4.20;;
56075;SDS011;41951;49.022;12.066;2023-02-28T00:22:40;8.68;;;4.25;;
56075;SDS011;41951;49.022;12.066;2023-02-28T00:25:08;8.52;;;4.45;;
56075;SDS011;41951;49.022;12.066;2023-02-28T00:27:36;6.75;;;4.10;;
56075;SDS011;41951;49.022;12.066;2023-02-28T00:30:03;8.00;;;4.40;;
56075;SDS011;41951;49.022;12.066;2023-02-28T00:32:30;9.07;;;4.25;;
56075;SDS011;41951;49.022;12.066;2023-02-28T00:34:56;9.88;;;4.25;;
56075;SDS011;41951;49.022;12.066;2023-02-28T00:37:21;10.05;;;4.90;;
56075;SDS011;41951;49.022;12.066;2023-02-28T00:39:47;7.85;;;4.40;;
56075;SDS011;41951;49.022;12.066;2023-02-28T00:42:12;9.90;;;4.20;;
56075;SDS011;41951;49.022;12.066;2023-02-28T00:44:38;6.80;;;4.28;;
56075;SDS011;41951;49.022;12.066;2023-02-28T00:47:04;8.82;;;4.55;;
56075;SDS011;41951;49.022;12.066;2023-02-28T00:49:29;9.38;;;4.55;;
56075;SDS011;41951;49.022;12.066;2023-02-28T00:51:55;7.93;;;3.95;;
56075;SDS011;41951;49.022;12.066;2023-02-28T00:54:21;7.45;;;4.13;;
56075;SDS011;41951;49.022;12.066;2023-02-28T00:56:47;7.45;;;4.80;;
56075;SDS011;41951;49.022;12.066;2023-02-28T00:59:13;9.15;;;4.57;;
56075;SDS011;41951;49.022;12.066;2023-02-28T01:01:40;9.23;;;4.43;;
56075;SDS011;41951;49.022;12.066;2023-02-28T01:04:06;7.93;;;4.40;;
56075;SDS011;41951;49.022;12.066;2023-02-28T01:06:32;9.00;;;4.18;;
56075;SDS011;41951;49.022;12.066;2023-02-28T01:08:58;10.77;;;4.75;;
56075;SDS011;41951;49.022;12.066;2023-02-28T01:11:24;11.00;;;4.72;;
56075;SDS011;41951;49.022;12.066;2023-02-28T01:13:50;8.48;;;4.50;;
56075;SDS011;41951;49.022;12.066;2023-02-28T01:16:15;8.75;;;3.95;;
56075;SDS011;41951;49.022;12.066;2023-02-28T01:18:41;8.25;;;4.40;;
56075;SDS011;41951;49.022;12.066;2023-02-28T01:21:11;8.50;;;5.05;;
56075;SDS011;41951;49.022;12.066;2023-02-28T01:23:40;8.35;;;4.70;;
56075;SDS011;41951;49.022;12.066;2023-02-28T01:26:13;7.80;;;4.88;;
56075;SDS011;41951;49.022;12.066;2023-02-28T01:28:41;7.72;;;4.00;;
56075;SDS011;41951;49.022;12.066;2023-02-28T01:31:07;8.23;;;4.60;;
56075;SDS011;41951;49.022;12.066;2023-02-28T01:33:33;8.55;;;4.78;;
56075;SDS011;41951;49.022;12.066;2023-02-28T01:36:00;8.40;;;4.93;;
56075;SDS011;41951;49.022;12.066;2023-02-28T01:38:29;9.85;;;4.60;;
56075;SDS011;41951;49.022;12.066;2023-02-28T01:40:55;12.20;;;5.68;;
56075;SDS011;41951;49.022;12.066;2023-02-28T01:45:48;8.27;;;4.90;;
56075;SDS011;41951;49.022;12.066;2023-02-28T01:48:14;8.00;;;4.75;;
56075;SDS011;41951;49.022;12.066;2023-02-28T01:50:41;7.70;;;4.20;;
56075;SDS011;41951;49.022;12.066;2023-02-28T01:53:10;8.23;;;4.75;;
56075;SDS011;41951;49.022;12.066;2023-02-28T01:55:39;8.27;;;4.53;;
56075;SDS011;41951;49.022;12.066;2023-02-28T01:58:07;11.43;;;4.65;;
56075;SDS011;41951;49.022;12.066;2023-02-28T02:00:34;8.73;;;5.22;;
56075;SDS011;41951;49.022;12.066;2023-02-28T02:03:04;8.77;;;4.50;;
56075;SDS011;41951;49.022;12.066;2023-02-28T02:05:34;8.18;;;4.63;;
56075;SDS011;41951;49.022;12.066;2023-02-28T02:08:09;11.70;;;4.35;;
56075;SDS011;41951;49.022;12.066;2023-02-28T02:10:41;8.43;;;4.78;;
56075;SDS011;41951;49.022;12.066;2023-02-28T02:18:48;8.35;;;4.47;;
56075;SDS011;41951;49.022;12.066;2023-02-28T02:27:17;9.63;;;4.97;;
56075;SDS011;41951;49.022;12.066;2023-02-28T02:32:47;8.88;;;4.80;;
56075;SDS011;41951;49.022;12.066;2023-02-28T02:38:41;10.27;;;4.55;;
56075;SDS011;41951;49.022;12.066;2023-02-28T02:44:02;10.52;;;5.25;;
56075;SDS011;41951;49.022;12.066;2023-02-28T02:46:37;9.15;;;5.35;;
56075;SDS011;41951;49.022;12.066;2023-02-28T02:49:08;10.07;;;4.77;;
56075;SDS011;41951;49.022;12.066;2023-02-28T02:51:37;8.15;;;4.88;;
56075;SDS011;41951;49.022;12.066;2023-02-28T02:54:05;11.00;;;5.13;;
56075;SDS011;41951;49.022;12.066;2023-02-28T02:56:36;7.85;;;4.78;;
56075;SDS011;41951;49.022;12.066;2023-02-28T02:59:06;10.68;;;5.07;;
56075;SDS011;41951;49.022;12.066;2023-02-28T03:01:34;9.43;;;4.90;;
56075;SDS011;41951;49.022;12.066;2023-02-28T03:04:12;10.55;;;5.40;;
56075;SDS011;41951;49.022;12.066;2023-02-28T03:06:41;10.65;;;5.50;;
56075;SDS011;41951;49.022;12.066;2023-02-28T03:09:06;9.00;;;4.82;;
56075;SDS011;41951;49.022;12.066;2023-02-28T03:11:32;12.70;;;6.32;;
56075;SDS011;41951;49.022;12.066;2023-02-28T03:14:25;8.75;;;4.80;;
56075;SDS011;41951;49.022;12.066;2023-02-28T03:27:29;12.98;;;5.50;;
56075;SDS011;41951;49.022;12.066;2023-02-28T03:30:22;11.55;;;5.20;;
56075;SDS011;41951;49.022;12.066;2023-02-28T03:35:32;9.52;;;5.15;;
56075;SDS011;41951;49.022;12.066;2023-02-28T03:38:16;9.15;;;5.50;;
56075;SDS011;41951;49.022;12.066;2023-02-28T03:40:51;9.73;;;5.95;;
56075;SDS011;41951;49.022;12.066;2023-02-28T03:43:24;11.00;;;5.82;;
56075;SDS011;41951;49.022;12.066;2023-02-28T03:45:55;9.88;;;5.90;;
56075;SDS011;41951;49.022;12.066;2023-02-28T03:48:28;10.80;;;5.85;;
56075;SDS011;41951;49.022;12.066;2023-02-28T03:51:00;10.57;;;5.60;;
56075;SDS011;41951;49.022;12.066;2023-02-28T03:53:38;12.20;;;6.18;;
56075;SDS011;41951;49.022;12.066;2023-02-28T03:56:09;12.55;;;6.63;;
56075;SDS011;41951;49.022;12.066;2023-02-28T03:59:43;10.63;;;5.88;;
56075;SDS011;41951;49.022;12.066;2023-02-28T04:01:44;11.20;;;5.57;;
56075;SDS011;41951;49.022;12.066;2023-02-28T04:04:12;10.25;;;6.40;;
56075;SDS011;41951;49.022;12.066;2023-02-28T04:06:39;11.23;;;6.00;;
56075;SDS011;41951;49.022;12.066;2023-02-28T04:09:06;11.02;;;5.75;;
56075;SDS011;41951;49.022;12.066;2023-02-28T04:11:42;9.60;;;6.22;;
56075;SDS011;41951;49.022;12.066;2023-02-28T04:14:11;10.98;;;6.47;;
56075;SDS011;41951;49.022;12.066;2023-02-28T04:16:38;11.40;;;6.25;;
56075;SDS011;41951;49.022;12.066;2023-02-28T04:19:06;11.27;;;6.05;;
56075;SDS011;41951;49.022;12.066;2023-02-28T04:21:34;12.57;;;5.63;;
56075;SDS011;41951;49.022;12.066;2023-02-28T04:24:04;10.82;;;5.00;;
56075;SDS011;41951;49.022;12.066;2023-02-28T04:26:30;15.63;;;7.75;;
56075;SDS011;41951;49.022;12.066;2023-02-28T04:28:57;13.30;;;6.68;;
56075;SDS011;41951;49.022;12.066;2023-02-28T04:31:22;12.23;;;5.93;;
56075;SDS011;41951;49.022;12.066;2023-02-28T04:33:48;12.02;;;6.20;;
56075;SDS011;41951;49.022;12.066;2023-02-28T04:36:14;12.05;;;6.25;;
56075;SDS011;41951;49.022;12.066;2023-02-28T04:38:40;11.32;;;6.05;;
56075;SDS011;41951;49.022;12.066;2023-02-28T04:41:05;11.07;;;6.25;;
56075;SDS011;41951;49.022;12.066;2023-02-28T04:43:31;12.52;;;5.93;;
56075;SDS011;41951;49.022;12.066;2023-02-28T04:45:58;12.48;;;6.70;;
56075;SDS011;41951;49.022;12.066;2023-02-28T04:48:27;11.75;;;6.18;;
56075;SDS011;41951;49.022;12.066;2023-02-28T04:50:53;11.30;;;6.70;;
56075;SDS011;41951;49.022;12.066;2023-02-28T04:53:19;12.18;;;6.47;;
56075;SDS011;41951;49.022;12.066;2023-02-28T04:55:45;13.52;;;6.88;;
56075;SDS011;41951;49.022;12.066;2023-02-28T04:58:11;18.20;;;7.30;;
56075;SDS011;41951;49.022;12.066;2023-02-28T05:00:37;15.18;;;6.60;;
56075;SDS011;41951;49.022;12.066;2023-02-28T05:03:03;11.32;;;6.10;;
56075;SDS011;41951;49.022;12.066;2023-02-28T05:05:29;10.80;;;6.63;;
56075;SDS011;41951;49.022;12.066;2023-02-28T05:07:54;13.00;;;6.90;;
56075;SDS011;41951;49.022;12.066;2023-02-28T05:10:20;14.27;;;7.22;;
56075;SDS011;41951;49.022;12.066;2023-02-28T05:12:49;11.82;;;6.45;;
56075;SDS011;41951;49.022;12.066;2023-02-28T05:15:15;14.00;;;6.95;;
56075;SDS011;41951;49.022;12.066;2023-02-28T05:17:41;13.68;;;7.10;;
56075;SDS011;41951;49.022;12.066;2023-02-28T05:20:08;15.70;;;7.00;;
56075;SDS011;41951;49.022;12.066;2023-02-28T05:22:35;13.57;;;6.95;;
56075;SDS011;41951;49.022;12.066;2023-02-28T05:25:02;13.05;;;6.90;;
56075;SDS011;41951;49.022;12.066;2023-02-28T05:27:29;11.18;;;6.35;;
56075;SDS011;41951;49.022;12.066;2023-02-28T05:29:55;12.38;;;6.75;;
56075;SDS011;41951;49.022;12.066;2023-02-28T05:32:21;12.50;;;6.68;;
56075;SDS011;41951;49.022;12.066;2023-02-28T05:34:47;13.85;;;6.47;;
56075;SDS011;41951;49.022;12.066;2023-02-28T05:37:13;12.93;;;6.70;;
56075;SDS011;41951;49.022;12.066;2023-02-28T05:39:39;10.05;;;6.95;;
56075;SDS011;41951;49.022;12.066;2023-02-28T05:42:05;12.88;;;6.55;;
56075;SDS011;41951;49.022;12.066;2023-02-28T05:44:31;12.65;;;6.88;;
56075;SDS011;41951;49.022;12.066;2023-02-28T05:46:57;12.57;;;6.43;;
56075;SDS011;41951;49.022;12.066;2023-02-28T05:49:23;14.75;;;7.03;;
56075;SDS011;41951;49.022;12.066;2023-02-28T05:51:48;11.45;;;6.68;;
56075;SDS011;41951;49.022;12.066;2023-02-28T05:54:14;11.82;;;6.53;;
56075;SDS011;41951;49.022;12.066;2023-02-28T05:56:39;15.35;;;6.70;;
56075;SDS011;41951;49.022;12.066;2023-02-28T05:59:08;11.15;;;6.47;;
56075;SDS011;41951;49.022;12.066;2023-02-28T06:01:38;13.80;;;6.57;;
56075;SDS011;41951;49.022;12.066;2023-02-28T06:04:16;11.75;;;6.57;;
56075;SDS011;41951;49.022;12.066;2023-02-28T06:06:49;13.00;;;6.55;;
56075;SDS011;41951;49.022;12.066;2023-02-28T06:09:15;14.07;;;7.03;;
56075;SDS011;41951;49.022;12.066;2023-02-28T06:11:41;12.30;;;7.10;;
56075;SDS011;41951;49.022;12.066;2023-02-28T06:14:07;11.38;;;6.55;;
56075;SDS011;41951;49.022;12.066;2023-02-28T06:19:03;14.75;;;6.72;;
56075;SDS011;41951;49.022;12.066;2023-02-28T06:21:29;13.30;;;6.93;;
56075;SDS011;41951;49.022;12.066;2023-02-28T06:23:57;15.63;;;6.57;;
56075;SDS011;41951;49.022;12.066;2023-02-28T06:26:23;13.63;;;7.20;;
56075;SDS011;41951;49.022;12.066;2023-02-28T06:28:49;15.07;;;7.15;;
56075;SDS011;41951;49.022;12.066;2023-02-28T06:31:15;12.75;;;6.93;;
56075;SDS011;41951;49.022;12.066;2023-02-28T06:33:42;13.88;;;6.28;;
56075;SDS011;41951;49.022;12.066;2023-02-28T06:36:10;14.50;;;6.93;;
56075;SDS011;41951;49.022;12.066;2023-02-28T06:38:39;15.05;;;6.65;;
56075;SDS011;41951;49.022;12.066;2023-02-28T06:41:06;11.77;;;7.05;;
56075;SDS011;41951;49.022;12.066;2023-02-28T06:43:35;17.13;;;6.80;;
56075;SDS011;41951;49.022;12.066;2023-02-28T06:46:04;14.95;;;8.00;;
56075;SDS011;41951;49.022;12.066;2023-02-28T06:48:33;14.50;;;6.03;;
56075;SDS011;41951;49.022;12.066;2023-02-28T06:51:03;15.13;;;6.95;;
56075;SDS011;41951;49.022;12.066;2023-02-28T06:53:30;17.42;;;7.22;;
56075;SDS011;41951;49.022;12.066;2023-02-28T06:55:56;15.45;;;6.78;;
56075;SDS011;41951;49.022;12.066;2023-02-28T06:58:21;15.00;;;7.05;;
56075;SDS011;41951;49.022;12.066;2023-02-28T07:00:49;14.63;;;6.30;;
56075;SDS011;41951;49.022;12.066;2023-02-28T07:03:16;10.65;;;6.20;;
56075;SDS011;41951;49.022;12.066;2023-02-28T07:05:42;17.42;;;6.32;;
56075;SDS011;41951;49.022;12.066;2023-02-28T07:08:08;15.85;;;6.35;;
56075;SDS011;41951;49.022;12.066;2023-02-28T07:10:33;11.52;;;5.72;;
56075;SDS011;41951;49.022;12.066;2023-02-28T07:13:01;12.43;;;6.30;;
56075;SDS011;41951;49.022;12.066;2023-02-28T07:15:29;18.35;;;7.03;;
56075;SDS011;41951;49.022;12.066;2023-02-28T07:17:55;16.85;;;7.50;;
56075;SDS011;41951;49.022;12.066;2023-02-28T07:20:21;16.88;;;6.95;;
56075;SDS011;41951;49.022;12.066;2023-02-28T07:22:48;12.98;;;6.53;;
56075;SDS011;41951;49.022;12.066;2023-02-28T07:25:20;13.07;;;6.97;;
56075;SDS011;41951;49.022;12.066;2023-02-28T07:27:47;17.20;;;6.63;;
56075;SDS011;41951;49.022;12.066;2023-02-28T07:30:13;12.43;;;6.13;;
56075;SDS011;41951;49.022;12.066;2023-02-28T07:32:39;14.15;;;7.32;;
56075;SDS011;41951;49.022;12.066;2023-02-28T07:35:05;17.20;;;6.72;;
56075;SDS011;41951;49.022;12.066;2023-02-28T07:37:31;15.40;;;7.28;;
56075;SDS011;41951;49.022;12.066;2023-02-28T07:40:01;12.07;;;5.77;;
56075;SDS011;41951;49.022;12.066;2023-02-28T07:42:33;14.05;;;6.63;;
56075;SDS011;41951;49.022;12.066;2023-02-28T07:44:59;11.95;;;6.80;;
56075;SDS011;41951;49.022;12.066;2023-02-28T07:47:25;17.13;;;6.88;;
56075;SDS011;41951;49.022;12.066;2023-02-28T07:49:50;12.35;;;7.07;;
56075;SDS011;41951;49.022;12.066;2023-02-28T07:52:16;14.73;;;7.18;;
56075;SDS011;41951;49.022;12.066;2023-02-28T07:54:41;12.20;;;6.28;;
56075;SDS011;41951;49.022;12.066;2023-02-28T07:57:07;13.50;;;7.03;;
56075;SDS011;41951;49.022;12.066;2023-02-28T07:59:32;18.55;;;7.22;;
56075;SDS011;41951;49.022;12.066;2023-02-28T08:01:58;10.95;;;6.50;;
56075;SDS011;41951;49.022;12.066;2023-02-28T08:04:24;11.93;;;7.03;;
56075;SDS011;41951;49.022;12.066;2023-02-28T08:06:50;15.60;;;7.25;;
56075;SDS011;41951;49.022;12.066;2023-02-28T08:09:18;16.05;;;6.93;;
56075;SDS011;41951;49.022;12.066;2023-02-28T08:11:44;14.00;;;6.25;;
56075;SDS011;41951;49.022;12.066;2023-02-28T08:14:09;11.85;;;6.32;;
56075;SDS011;41951;49.022;12.066;2023-02-28T08:16:35;12.80;;;6.53;;
56075;SDS011;41951;49.022;12.066;2023-02-28T08:19:00;13.15;;;6.80;;
56075;SDS011;41951;49.022;12.066;2023-02-28T08:21:26;14.40;;;7.05;;
56075;SDS011;41951;49.022;12.066;2023-02-28T08:23:51;11.90;;;6.57;;
56075;SDS011;41951;49.022;12.066;2023-02-28T08:26:17;13.52;;;7.50;;
56075;SDS011;41951;49.022;12.066;2023-02-28T08:28:43;12.43;;;7.32;;
56075;SDS011;41951;49.022;12.066;2023-02-28T08:31:10;11.23;;;6.28;;
56075;SDS011;41951;49.022;12.066;2023-02-28T08:33:38;10.15;;;6.30;;
56075;SDS011;41951;49.022;12.066;2023-02-28T08:36:05;9.82;;;6.00;;
56075;SDS011;41951;49.022;12.066;2023-02-28T08:38:31;13.85;;;6.78;;
56075;SDS011;41951;49.022;12.066;2023-02-28T08:40:58;12.40;;;7.45;;
56075;SDS011;41951;49.022;12.066;2023-02-28T08:43:32;11.05;;;6.32;;
56075;SDS011;41951;49.022;12.066;2023-02-28T08:45:58;13.63;;;6.95;;
56075;SDS011;41951;49.022;12.066;2023-02-28T08:48:26;14.95;;;7.32;;
56075;SDS011;41951;49.022;12.066;2023-02-28T08:51:01;13.32;;;7.40;;
56075;SDS011;41951;49.022;12.066;2023-02-28T08:53:31;14.43;;;7.15;;
56075;SDS011;41951;49.022;12.066;2023-02-28T08:58:24;12.15;;;6.28;;
56075;SDS011;41951;49.022;12.066;2023-02-28T09:00:50;12.10;;;6.30;;
56075;SDS011;41951;49.022;12.066;2023-02-28T09:03:16;12.25;;;6.60;;
56075;SDS011;41951;49.022;12.066;2023-02-28T09:05:51;14.20;;;7.80;;
56075;SDS011;41951;49.022;12.066;2023-02-28T09:08:26;11.30;;;7.05;;
56075;SDS011;41951;49.022;12.066;2023-02-28T09:10:53;11.63;;;6.40;;
56075;SDS011;41951;49.022;12.066;2023-02-28T09:13:22;14.10;;;6.88;;
56075;SDS011;41951;49.022;12.066;2023-02-28T09:15:47;13.70;;;6.65;;
56075;SDS011;41951;49.022;12.066;2023-02-28T09:18:13;13.10;;;6.55;;
56075;SDS011;41951;49.022;12.066;2023-02-28T09:20:40;12.13;;;7.18;;
56075;SDS011;41951;49.022;12.066;2023-02-28T09:23:07;15.48;;;7.60;;
56075;SDS011;41951;49.022;12.066;2023-02-28T09:25:33;13.27;;;7.03;;
56075;SDS011;41951;49.022;12.066;2023-02-28T09:27:59;13.48;;;7.20;;
56075;SDS011;41951;49.022;12.066;2023-02-28T09:30:25;13.48;;;6.82;;
56075;SDS011;41951;49.022;12.066;2023-02-28T09:32:51;12.18;;;7.07;;
56075;SDS011;41951;49.022;12.066;2023-02-28T09:35:20;14.77;;;6.97;;
56075;SDS011;41951;49.022;12.066;2023-02-28T09:37:47;16.40;;;7.13;;
56075;SDS011;41951;49.022;12.066;2023-02-28T09:40:20;12.55;;;7.28;;
56075;SDS011;41951;49.022;12.066;2023-02-28T09:42:49;14.02;;;7.32;;
56075;SDS011;41951;49.022;12.066;2023-02-28T09:47:58;12.77;;;7.78;;
56075;SDS011;41951;49.022;12.066;2023-02-28T09:50:30;11.27;;;7.35;;
56075;SDS011;41951;49.022;12.066;2023-02-28T09:56:11;12.00;;;6.68;;
56075;SDS011;41951;49.022;12.066;2023-02-28T09:58:54;13.02;;;6.75;;
56075;SDS011;41951;49.022;12.066;2023-02-28T10:01:36;12.38;;;6.45;;
56075;SDS011;41951;49.022;12.066;2023-02-28T10:06:39;13.30;;;7.00;;
56075;SDS011;41951;49.022;12.066;2023-02-28T10:09:18;12.38;;;7.43;;
56075;SDS011;41951;49.022;12.066;2023-02-28T10:11:54;12.23;;;6.50;;
56075;SDS011;41951;49.022;12.066;2023-02-28T10:16:56;12.82;;;6.72;;
56075;SDS011;41951;49.022;12.066;2023-02-28T10:19:44;12.52;;;6.60;;
56075;SDS011;41951;49.022;12.066;2023-02-28T10:22:22;12.32;;;7.47;;
56075;SDS011;41951;49.022;12.066;2023-02-28T10:24:59;12.13;;;6.80;;
56075;SDS011;41951;49.022;12.066;2023-02-28T10:27:42;14.98;;;7.55;;
56075;SDS011;41951;49.022;12.066;2023-02-28T10:30:09;12.18;;;6.50;;
56075;SDS011;41951;49.022;12.066;2023-02-28T10:32:35;12.60;;;6.43;;
56075;SDS011;41951;49.022;12.066;2023-02-28T10:37:41;13.93;;;7.32;;
56075;SDS011;41951;49.022;12.066;2023-02-28T10:40:50;12.90;;;7.45;;
56075;SDS011;41951;49.022;12.066;2023-02-28T10:43:03;14.43;;;6.80;;
56075;SDS011;41951;49.022;12.066;2023-02-28T10:45:31;96.60;;;15.70;;
56075;SDS011;41951;49.022;12.066;2023-02-28T10:55:55;15.05;;;7.10;;
56075;SDS011;41951;49.022;12.066;2023-02-28T10:58:25;13.88;;;7.68;;
56075;SDS011;41951;49.022;12.066;2023-02-28T11:03:25;12.45;;;7.25;;
56075;SDS011;41951;49.022;12.066;2023-02-28T11:05:56;12.40;;;7.40;;
56075;SDS011;41951;49.022;12.066;2023-02-28T11:08:26;14.43;;;6.80;;
56075;SDS011;41951;49.022;12.066;2023-02-28T11:10:59;11.50;;;6.97;;
56075;SDS011;41951;49.022;12.066;2023-02-28T11:13:33;12.32;;;6.30;;
56075;SDS011;41951;49.022;12.066;2023-02-28T11:16:02;12.30;;;6.95;;
56075;SDS011;41951;49.022;12.066;2023-02-28T11:18:32;11.40;;;6.57;;
56075;SDS011;41951;49.022;12.066;2023-02-28T11:21:23;15.75;;;7.60;;
56075;SDS011;41951;49.022;12.066;2023-02-28T11:24:00;15.65;;;7.18;;
56075;SDS011;41951;49.022;12.066;2023-02-28T11:26:48;13.57;;;7.10;;
56075;SDS011;41951;49.022;12.066;2023-02-28T11:29:17;11.85;;;7.00;;
56075;SDS011;41951;49.022;12.066;2023-02-28T11:34:36;13.27;;;7.22;;
56075;SDS011;41951;49.022;12.066;2023-02-28T11:37:03;14.68;;;7.22;;
56075;SDS011;41951;49.022;12.066;2023-02-28T11:39:31;12.02;;;7.60;;
56075;SDS011;41951;49.022;12.066;2023-02-28T11:42:02;14.80;;;7.82;;
56075;SDS011;41951;49.022;12.066;2023-02-28T11:52:58;13.73;;;7.07;;
56075;SDS011;41951;49.022;12.066;2023-02-28T11:55:40;13.95;;;7.35;;
56075;SDS011;41951;49.022;12.066;2023-02-28T11:58:14;13.55;;;6.78;;
56075;SDS011;41951;49.022;12.066;2023-02-28T12:06:36;12.18;;;6.97;;
56075;SDS011;41951;49.022;12.066;2023-02-28T12:17:25;12.25;;;7.18;;
56075;SDS011;41951;49.022;12.066;2023-02-28T12:20:05;15.35;;;7.47;;
56075;SDS011;41951;49.022;12.066;2023-02-28T12:28:25;12.40;;;7.82;;
56075;SDS011;41951;49.022;12.066;2023-02-28T12:31:06;13.65;;;7.63;;
56075;SDS011;41951;49.022;12.066;2023-02-28T12:33:47;14.18;;;8.00;;
56075;SDS011;41951;49.022;12.066;2023-02-28T12:36:17;10.93;;;6.65;;
56075;SDS011;41951;49.022;12.066;2023-02-28T12:39:00;12.55;;;6.72;;
56075;SDS011;41951;49.022;12.066;2023-02-28T12:41:52;14.88;;;6.97;;
56075;SDS011;41951;49.022;12.066;2023-02-28T12:44:30;14.05;;;7.63;;
56075;SDS011;41951;49.022;12.066;2023-02-28T12:47:03;12.50;;;6.75;;
56075;SDS011;41951;49.022;12.066;2023-02-28T12:49:36;14.20;;;6.72;;
56075;SDS011;41951;49.022;12.066;2023-02-28T12:52:25;11.75;;;7.30;;
56075;SDS011;41951;49.022;12.066;2023-02-28T13:00:33;15.55;;;7.55;;
56075;SDS011;41951;49.022;12.066;2023-02-28T13:11:25;13.60;;;6.57;;
56075;SDS011;41951;49.022;12.066;2023-02-28T13:13:58;11.52;;;6.63;;
56075;SDS011;41951;49.022;12.066;2023-02-28T13:16:26;12.13;;;7.38;;
56075;SDS011;41951;49.022;12.066;2023-02-28T13:18:52;12.82;;;7.22;;
56075;SDS011;41951;49.022;12.066;2023-02-28T13:21:41;11.45;;;6.35;;
56075;SDS011;41951;49.022;12.066;2023-02-28T13:24:08;12.85;;;6.50;;
56075;SDS011;41951;49.022;12.066;2023-02-28T13:34:30;11.10;;;6.75;;
56075;SDS011;41951;49.022;12.066;2023-02-28T13:39:45;10.80;;;6.57;;
56075;SDS011;41951;49.022;12.066;2023-02-28T13:47:28;11.27;;;6.78;;
56075;SDS011;41951;49.022;12.066;2023-02-28T13:55:33;12.52;;;6.97;;
56075;SDS011;41951;49.022;12.066;2023-02-28T14:06:22;11.90;;;6.88;;
56075;SDS011;41951;49.022;12.066;2023-02-28T14:11:29;10.82;;;6.53;;
56075;SDS011;41951;49.022;12.066;2023-02-28T14:13:57;10.30;;;6.30;;
56075;SDS011;41951;49.022;12.066;2023-02-28T14:16:24;12.88;;;7.60;;
56075;SDS011;41951;49.022;12.066;2023-02-28T14:19:02;12.60;;;7.15;;
56075;SDS011;41951;49.022;12.066;2023-02-28T14:21:36;12.65;;;6.63;;
56075;SDS011;41951;49.022;12.066;2023-02-28T14:37:50;9.85;;;6.38;;
56075;SDS011;41951;49.022;12.066;2023-02-28T14:40:19;12.43;;;7.32;;
56075;SDS011;41951;49.022;12.066;2023-02-28T14:42:57;12.82;;;6.70;;
56075;SDS011;41951;49.022;12.066;2023-02-28T14:45:24;12.05;;;6.75;;
56075;SDS011;41951;49.022;12.066;2023-02-28T14:47:55;12.88;;;6.88;;
56075;SDS011;41951;49.022;12.066;2023-02-28T14:50:23;15.15;;;7.05;;
56075;SDS011;41951;49.022;12.066;2023-02-28T14:52:52;7.97;;;5.27;;
56075;SDS011;41951;49.022;12.066;2023-02-28T14:55:22;13.15;;;7.45;;
56075;SDS011;41951;49.022;12.066;2023-02-28T14:58:18;11.70;;;7.10;;
56075;SDS011;41951;49.022;12.066;2023-02-28T15:00:51;12.68;;;7.20;;
56075;SDS011;41951;49.022;12.066;2023-02-28T15:05:57;13.93;;;7.35;;
56075;SDS011;41951;49.022;12.066;2023-02-28T15:08:24;15.45;;;8.18;;
56075;SDS011;41951;49.022;12.066;2023-02-28T15:13:22;12.65;;;7.22;;
56075;SDS011;41951;49.022;12.066;2023-02-28T15:16:01;16.42;;;8.73;;
56075;SDS011;41951;49.022;12.066;2023-02-28T15:23:51;15.93;;;7.20;;
56075;SDS011;41951;49.022;12.066;2023-02-28T15:26:27;14.15;;;7.75;;
56075;SDS011;41951;49.022;12.066;2023-02-28T15:29:10;13.65;;;8.15;;
56075;SDS011;41951;49.022;12.066;2023-02-28T15:31:48;12.88;;;7.60;;
56075;SDS011;41951;49.022;12.066;2023-02-28T15:34:36;15.45;;;7.75;;
56075;SDS011;41951;49.022;12.066;2023-02-28T15:40:14;15.30;;;9.07;;
56075;SDS011;41951;49.022;12.066;2023-02-28T15:42:41;13.25;;;7.63;;
56075;SDS011;41951;49.022;12.066;2023-02-28T15:45:28;14.55;;;7.57;;
56075;SDS011;41951;49.022;12.066;2023-02-28T15:48:02;16.27;;;8.80;;
56075;SDS011;41951;49.022;12.066;2023-02-28T15:50:28;13.52;;;7.93;;
56075;SDS011;41951;49.022;12.066;2023-02-28T15:52:54;16.27;;;8.35;;
56075;SDS011;41951;49.022;12.066;2023-02-28T15:55:21;16.30;;;8.10;;
56075;SDS011;41951;49.022;12.066;2023-02-28T15:58:00;16.40;;;8.70;;
56075;SDS011;41951;49.022;12.066;2023-02-28T16:00:28;17.52;;;8.80;;
56075;SDS011;41951;49.022;12.066;2023-02-28T16:02:57;14.32;;;7.57;;
56075;SDS011;41951;49.022;12.066;2023-02-28T16:05:27;13.95;;;7.88;;
56075;SDS011;41951;49.022;12.066;2023-02-28T16:07:58;14.13;;;8.20;;
56075;SDS011;41951;49.022;12.066;2023-02-28T16:10:26;14.40;;;9.38;;
56075;SDS011;41951;49.022;12.066;2023-02-28T16:12:56;13.85;;;8.27;;
56075;SDS011;41951;49.022;12.066;2023-02-28T16:17:50;17.30;;;8.90;;
56075;SDS011;41951;49.022;12.066;2023-02-28T16:20:18;18.08;;;9.48;;
56075;SDS011;41951;49.022;12.066;2023-02-28T16:22:52;15.00;;;9.38;;
56075;SDS011;41951;49.022;12.066;2023-02-28T16:25:20;17.77;;;10.77;;
56075;SDS011;41951;49.022;12.066;2023-02-28T16:27:54;14.82;;;8.60;;
56075;SDS011;41951;49.022;12.066;2023-02-28T16:30:26;19.45;;;9.55;;
56075;SDS011;41951;49.022;12.066;2023-02-28T16:32:54;16.70;;;9.38;;
56075;SDS011;41951;49.022;12.066;2023-02-28T16:35:20;16.58;;;9.60;;
56075;SDS011;41951;49.022;12.066;2023-02-28T16:37:46;14.05;;;8.20;;
56075;SDS011;41951;49.022;12.066;2023-02-28T16:40:17;15.70;;;8.70;;
56075;SDS011;41951;49.022;12.066;2023-02-28T16:42:46;18.30;;;8.70;;
56075;SDS011;41951;49.022;12.066;2023-02-28T16:45:20;17.08;;;9.90;;
56075;SDS011;41951;49.022;12.066;2023-02-28T16:47:48;16.25;;;9.13;;
56075;SDS011;41951;49.022;12.066;2023-02-28T16:50:15;17.15;;;9.00;;
56075;SDS011;41951;49.022;12.066;2023-02-28T16:52:43;16.85;;;9.60;;
56075;SDS011;41951;49.022;12.066;2023-02-28T16:55:09;16.40;;;9.05;;
56075;SDS011;41951;49.022;12.066;2023-02-28T16:57:35;16.88;;;9.27;;
56075;SDS011;41951;49.022;12.066;2023-02-28T17:00:01;15.10;;;9.00;;
56075;SDS011;41951;49.022;12.066;2023-02-28T17:02:28;15.30;;;9.63;;
56075;SDS011;41951;49.022;12.066;2023-02-28T17:04:53;16.45;;;9.52;;
56075;SDS011;41951;49.022;12.066;2023-02-28T17:07:19;17.75;;;9.98;;
56075;SDS011;41951;49.022;12.066;2023-02-28T17:09:44;22.90;;;11.25;;
56075;SDS011;41951;49.022;12.066;2023-02-28T17:12:10;20.75;;;9.93;;
56075;SDS011;41951;49.022;12.066;2023-02-28T17:14:36;16.40;;;9.82;;
56075;SDS011;41951;49.022;12.066;2023-02-28T17:17:04;19.33;;;9.82;;
56075;SDS011;41951;49.022;12.066;2023-02-28T17:19:30;18.95;;;9.80;;
56075;SDS011;41951;49.022;12.066;2023-02-28T17:21:55;18.52;;;9.70;;
56075;SDS011;41951;49.022;12.066;2023-02-28T17:24:21;19.33;;;10.10;;
56075;SDS011;41951;49.022;12.066;2023-02-28T17:26:47;19.65;;;10.45;;
56075;SDS011;41951;49.022;12.066;2023-02-28T17:29:19;20.92;;;9.63;;